Alexis, Illinois
Current Conditions -  °F | °C
As of 12:55 PM on Friday 31 Oct 2014 (Local Time) from KGBG Reporting Station
Scattered Clouds Scattered Clouds  
Wind Chill: 33°   Ceiling: Unl
Heat Index: 42°   Visibility: 10mi
Dew Point: 23°   Wind: 24mph
Humidity: 45%   Direction: 340°NNW
Pressure: 30.32"   Gusts: 30mph
Location:  41.06°N, 90.56°W
Report Text: KGBG 311755Z AUTO 34021G26KT 10SM SCT048 06/M05 A3032 RMK AO2 T00581052 10059 20000
Loading
Personal Weather Stations






























Interactive Weather Map
Tropical Storm Tracking
New forecast layout! Learn more

10-Day Weather Forecast

Advertisements
Track Severe Weather on mobile